Loysville, Pennsylvania
Current Conditions -  °F | °C
As of 8:56 PM on Friday 31 Oct 2014 (Local Time) from KCXY Reporting Station
Broken Clouds Broken Clouds  
Wind Chill: 45°   Ceiling: 5500
Heat Index: 48°   Visibility: 10mi
Dew Point: 36°   Wind: 6mph
Humidity: 63%   Direction: 110°ESE
Pressure: 29.89"   Gusts: NA
Location:  40.37°N, 77.34°W
Report Text: KCXY 010056Z AUTO 11005KT 10SM BKN055 09/02 A2989 RMK AO2 SLP122 T00890022
Loading
Personal Weather Stations






























Interactive Weather Map
Tropical Storm Tracking
New forecast layout! Learn more

10-Day Weather Forecast

Advertisements
Track Severe Weather on mobile